sensor_id;sensor_type;location;lat;lon;timestamp;pressure;altitude;pressure_sealevel;temperature;humidity
55460;BME280;41326;45.302;-122.946;2023-02-18T00:00:34;101817.40;;;16.85;53.23
55460;BME280;41326;45.302;-122.946;2023-02-18T00:03:05;101809.60;;;16.82;53.23
55460;BME280;41326;45.302;-122.946;2023-02-18T00:05:36;101805.01;;;16.82;53.26
55460;BME280;41326;45.302;-122.946;2023-02-18T00:08:05;101800.69;;;16.80;53.35
55460;BME280;41326;45.302;-122.946;2023-02-18T00:10:35;101795.78;;;16.87;53.43
55460;BME280;41326;45.302;-122.946;2023-02-18T00:13:06;101784.44;;;16.93;53.50
55460;BME280;41326;45.302;-122.946;2023-02-18T00:15:36;101780.65;;;16.91;53.71
55460;BME280;41326;45.302;-122.946;2023-02-18T00:18:06;101776.18;;;16.91;53.75
55460;BME280;41326;45.302;-122.946;2023-02-18T00:20:37;101770.14;;;16.90;53.76
55460;BME280;41326;45.302;-122.946;2023-02-18T00:23:07;101770.04;;;16.89;53.69
55460;BME280;41326;45.302;-122.946;2023-02-18T00:25:38;101763.84;;;16.93;53.62
55460;BME280;41326;45.302;-122.946;2023-02-18T00:28:08;101763.70;;;16.92;53.88
55460;BME280;41326;45.302;-122.946;2023-02-18T00:30:39;101762.74;;;16.86;54.04
55460;BME280;41326;45.302;-122.946;2023-02-18T00:33:10;101765.15;;;16.88;53.91
55460;BME280;41326;45.302;-122.946;2023-02-18T00:35:39;101764.14;;;16.83;54.08
55460;BME280;41326;45.302;-122.946;2023-02-18T00:38:10;101756.33;;;16.84;54.05
55460;BME280;41326;45.302;-122.946;2023-02-18T00:40:42;101753.97;;;16.82;53.96
55460;BME280;41326;45.302;-122.946;2023-02-18T00:43:11;101753.34;;;16.82;53.86
55460;BME280;41326;45.302;-122.946;2023-02-18T00:45:41;101754.09;;;16.87;53.65
55460;BME280;41326;45.302;-122.946;2023-02-18T00:48:12;101761.00;;;17.13;53.09
55460;BME280;41326;45.302;-122.946;2023-02-18T00:50:42;101766.51;;;17.36;52.49
55460;BME280;41326;45.302;-122.946;2023-02-18T00:53:13;101763.59;;;17.62;51.98
55460;BME280;41326;45.302;-122.946;2023-02-18T00:55:44;101759.73;;;17.83;51.64
55460;BME280;41326;45.302;-122.946;2023-02-18T00:58:14;101752.62;;;18.01;51.31
55460;BME280;41326;45.302;-122.946;2023-02-18T01:00:44;101750.80;;;17.96;51.62
55460;BME280;41326;45.302;-122.946;2023-02-18T01:03:15;101756.91;;;17.88;51.83
55460;BME280;41326;45.302;-122.946;2023-02-18T01:05:45;101758.76;;;17.81;52.19
55460;BME280;41326;45.302;-122.946;2023-02-18T01:08:16;101761.11;;;17.92;51.77
55460;BME280;41326;45.302;-122.946;2023-02-18T01:10:48;101769.38;;;18.14;51.12
55460;BME280;41326;45.302;-122.946;2023-02-18T01:13:16;101776.16;;;18.33;50.51
55460;BME280;41326;45.302;-122.946;2023-02-18T01:15:46;101786.18;;;18.41;50.11
55460;BME280;41326;45.302;-122.946;2023-02-18T01:18:17;101795.07;;;18.44;49.93
55460;BME280;41326;45.302;-122.946;2023-02-18T01:20:47;101806.75;;;18.28;50.37
55460;BME280;41326;45.302;-122.946;2023-02-18T01:23:17;101813.82;;;18.18;50.57
55460;BME280;41326;45.302;-122.946;2023-02-18T01:25:47;101814.66;;;18.11;50.89
55460;BME280;41326;45.302;-122.946;2023-02-18T01:28:18;101805.59;;;18.05;51.06
55460;BME280;41326;45.302;-122.946;2023-02-18T01:30:47;101796.01;;;17.93;51.38
55460;BME280;41326;45.302;-122.946;2023-02-18T01:33:18;101795.89;;;17.93;51.39
55460;BME280;41326;45.302;-122.946;2023-02-18T01:35:49;101796.30;;;17.85;51.52
55460;BME280;41326;45.302;-122.946;2023-02-18T01:38:19;101795.26;;;17.93;51.20
55460;BME280;41326;45.302;-122.946;2023-02-18T01:40:51;101791.19;;;18.06;50.96
55460;BME280;41326;45.302;-122.946;2023-02-18T01:43:20;101786.74;;;18.34;50.31
55460;BME280;41326;45.302;-122.946;2023-02-18T01:45:58;101784.90;;;18.49;49.79
55460;BME280;41326;45.302;-122.946;2023-02-18T01:48:22;101786.90;;;18.37;50.11
55460;BME280;41326;45.302;-122.946;2023-02-18T01:50:53;101782.86;;;18.26;50.51
55460;BME280;41326;45.302;-122.946;2023-02-18T01:53:24;101782.71;;;18.25;50.51
55460;BME280;41326;45.302;-122.946;2023-02-18T01:55:52;101786.05;;;18.14;50.83
55460;BME280;41326;45.302;-122.946;2023-02-18T01:58:21;101790.03;;;18.09;51.28
55460;BME280;41326;45.302;-122.946;2023-02-18T02:00:51;101786.55;;;18.01;51.55
55460;BME280;41326;45.302;-122.946;2023-02-18T02:03:21;101774.19;;;17.98;51.48
55460;BME280;41326;45.302;-122.946;2023-02-18T02:05:52;101765.82;;;17.94;51.59
55460;BME280;41326;45.302;-122.946;2023-02-18T02:08:22;101767.88;;;18.09;51.19
55460;BME280;41326;45.302;-122.946;2023-02-18T02:11:03;101766.49;;;18.32;51.07
55460;BME280;41326;45.302;-122.946;2023-02-18T02:13:28;101765.57;;;18.45;51.56
55460;BME280;41326;45.302;-122.946;2023-02-18T02:15:56;101768.38;;;18.45;52.33
55460;BME280;41326;45.302;-122.946;2023-02-18T02:18:35;101767.30;;;18.49;52.49
55460;BME280;41326;45.302;-122.946;2023-02-18T02:23:39;101775.38;;;18.43;52.82
55460;BME280;41326;45.302;-122.946;2023-02-18T02:28:38;101766.05;;;18.37;52.84
55460;BME280;41326;45.302;-122.946;2023-02-18T02:33:39;101774.36;;;18.28;53.19
55460;BME280;41326;45.302;-122.946;2023-02-18T02:36:02;101774.26;;;18.25;53.21
55460;BME280;41326;45.302;-122.946;2023-02-18T02:38:31;101771.08;;;18.18;53.40
55460;BME280;41326;45.302;-122.946;2023-02-18T02:41:01;101765.59;;;18.12;53.70
55460;BME280;41326;45.302;-122.946;2023-02-18T02:43:32;101779.21;;;18.10;53.94
55460;BME280;41326;45.302;-122.946;2023-02-18T02:46:01;101794.02;;;18.05;54.30
55460;BME280;41326;45.302;-122.946;2023-02-18T02:48:32;101790.79;;;17.97;54.49
55460;BME280;41326;45.302;-122.946;2023-02-18T02:51:02;101785.06;;;17.98;54.42
55460;BME280;41326;45.302;-122.946;2023-02-18T02:53:32;101778.43;;;17.96;54.34
55460;BME280;41326;45.302;-122.946;2023-02-18T02:55:58;101784.39;;;17.90;54.51
55460;BME280;41326;45.302;-122.946;2023-02-18T02:58:29;101793.70;;;17.85;54.81
55460;BME280;41326;45.302;-122.946;2023-02-18T03:01:11;101790.28;;;17.88;54.54
55460;BME280;41326;45.302;-122.946;2023-02-18T03:06:12;101773.26;;;17.89;54.70
55460;BME280;41326;45.302;-122.946;2023-02-18T03:08:41;101764.22;;;17.85;54.82
55460;BME280;41326;45.302;-122.946;2023-02-18T03:11:06;101758.35;;;17.83;54.76
55460;BME280;41326;45.302;-122.946;2023-02-18T03:13:44;101760.41;;;17.80;54.80
55460;BME280;41326;45.302;-122.946;2023-02-18T03:16:07;101760.42;;;17.80;54.70
55460;BME280;41326;45.302;-122.946;2023-02-18T03:18:37;101750.24;;;17.76;54.74
55460;BME280;41326;45.302;-122.946;2023-02-18T03:21:08;101743.05;;;17.73;54.51
55460;BME280;41326;45.302;-122.946;2023-02-18T03:23:37;101742.84;;;17.68;54.56
55460;BME280;41326;45.302;-122.946;2023-02-18T03:26:04;101742.28;;;17.84;54.04
55460;BME280;41326;45.302;-122.946;2023-02-18T03:28:34;101740.24;;;18.06;53.34
55460;BME280;41326;45.302;-122.946;2023-02-18T03:31:07;101739.67;;;18.19;52.86
55460;BME280;41326;45.302;-122.946;2023-02-18T03:33:36;101739.26;;;18.18;52.92
55460;BME280;41326;45.302;-122.946;2023-02-18T03:36:06;101737.16;;;18.14;53.10
55460;BME280;41326;45.302;-122.946;2023-02-18T03:38:38;101737.03;;;18.07;53.26
55460;BME280;41326;45.302;-122.946;2023-02-18T03:41:05;101747.67;;;18.07;53.17
55460;BME280;41326;45.302;-122.946;2023-02-18T03:43:35;101756.51;;;17.99;53.43
55460;BME280;41326;45.302;-122.946;2023-02-18T03:46:07;101756.17;;;18.01;53.40
55460;BME280;41326;45.302;-122.946;2023-02-18T03:48:36;101761.75;;;17.96;53.63
55460;BME280;41326;45.302;-122.946;2023-02-18T03:51:06;101773.39;;;17.90;53.87
55460;BME280;41326;45.302;-122.946;2023-02-18T03:53:37;101773.87;;;17.89;53.87
55460;BME280;41326;45.302;-122.946;2023-02-18T03:56:07;101775.26;;;17.92;53.77
55460;BME280;41326;45.302;-122.946;2023-02-18T03:58:37;101770.07;;;17.87;53.87
55460;BME280;41326;45.302;-122.946;2023-02-18T04:01:08;101767.25;;;17.84;53.88
55460;BME280;41326;45.302;-122.946;2023-02-18T04:03:38;101767.83;;;17.80;53.96
55460;BME280;41326;45.302;-122.946;2023-02-18T04:06:09;101767.66;;;17.78;54.04
55460;BME280;41326;45.302;-122.946;2023-02-18T04:08:39;101767.15;;;17.77;54.15
55460;BME280;41326;45.302;-122.946;2023-02-18T04:11:09;101762.54;;;17.71;54.34
55460;BME280;41326;45.302;-122.946;2023-02-18T04:13:39;101761.33;;;17.75;54.07
55460;BME280;41326;45.302;-122.946;2023-02-18T04:16:10;101770.09;;;18.00;53.25
55460;BME280;41326;45.302;-122.946;2023-02-18T04:18:40;101779.96;;;18.15;52.83
55460;BME280;41326;45.302;-122.946;2023-02-18T04:21:10;101777.17;;;18.28;52.47
55460;BME280;41326;45.302;-122.946;2023-02-18T04:23:41;101764.92;;;18.26;52.48
55460;BME280;41326;45.302;-122.946;2023-02-18T04:26:12;101753.64;;;18.22;52.75
55460;BME280;41326;45.302;-122.946;2023-02-18T04:28:41;101751.11;;;18.13;53.03
55460;BME280;41326;45.302;-122.946;2023-02-18T04:31:12;101746.21;;;18.12;53.07
55460;BME280;41326;45.302;-122.946;2023-02-18T04:33:42;101738.61;;;18.04;53.35
55460;BME280;41326;45.302;-122.946;2023-02-18T04:36:13;101730.84;;;18.00;53.50
55460;BME280;41326;45.302;-122.946;2023-02-18T04:38:43;101729.14;;;17.90;53.76
55460;BME280;41326;45.302;-122.946;2023-02-18T04:41:13;101731.07;;;17.93;53.54
55460;BME280;41326;45.302;-122.946;2023-02-18T04:43:43;101733.50;;;17.90;53.60
55460;BME280;41326;45.302;-122.946;2023-02-18T04:46:13;101737.36;;;17.88;53.69
55460;BME280;41326;45.302;-122.946;2023-02-18T04:48:44;101740.75;;;17.82;53.81
55460;BME280;41326;45.302;-122.946;2023-02-18T04:51:15;101750.12;;;17.78;53.90
55460;BME280;41326;45.302;-122.946;2023-02-18T04:53:45;101761.65;;;17.98;53.22
55460;BME280;41326;45.302;-122.946;2023-02-18T04:56:15;101772.15;;;18.18;52.64
55460;BME280;41326;45.302;-122.946;2023-02-18T04:58:45;101782.29;;;18.28;52.41
55460;BME280;41326;45.302;-122.946;2023-02-18T05:01:15;101788.56;;;18.31;52.34
55460;BME280;41326;45.302;-122.946;2023-02-18T05:03:46;101787.81;;;18.27;52.43
55460;BME280;41326;45.302;-122.946;2023-02-18T05:06:16;101787.87;;;18.21;52.66
55460;BME280;41326;45.302;-122.946;2023-02-18T05:08:46;101781.17;;;18.16;52.80
55460;BME280;41326;45.302;-122.946;2023-02-18T05:11:17;101783.93;;;18.10;52.97
55460;BME280;41326;45.302;-122.946;2023-02-18T05:13:47;101793.06;;;18.02;53.32
55460;BME280;41326;45.302;-122.946;2023-02-18T05:16:18;101794.60;;;17.99;53.35
55460;BME280;41326;45.302;-122.946;2023-02-18T05:18:48;101797.50;;;17.93;53.58
55460;BME280;41326;45.302;-122.946;2023-02-18T05:21:19;101797.00;;;17.95;53.43
55460;BME280;41326;45.302;-122.946;2023-02-18T05:23:49;101791.34;;;17.89;53.59
55460;BME280;41326;45.302;-122.946;2023-02-18T05:26:19;101792.45;;;17.87;53.76
55460;BME280;41326;45.302;-122.946;2023-02-18T05:28:49;101794.14;;;17.85;53.81
55460;BME280;41326;45.302;-122.946;2023-02-18T05:31:20;101793.79;;;17.82;53.98
55460;BME280;41326;45.302;-122.946;2023-02-18T05:33:50;101787.83;;;17.78;54.15
55460;BME280;41326;45.302;-122.946;2023-02-18T05:36:21;101784.47;;;17.75;54.21
55460;BME280;41326;45.302;-122.946;2023-02-18T05:38:51;101786.58;;;17.70;54.39
55460;BME280;41326;45.302;-122.946;2023-02-18T05:41:21;101785.72;;;17.73;54.21
55460;BME280;41326;45.302;-122.946;2023-02-18T05:43:51;101780.84;;;17.66;54.53
55460;BME280;41326;45.302;-122.946;2023-02-18T05:46:22;101783.86;;;17.64;54.57
55460;BME280;41326;45.302;-122.946;2023-02-18T05:48:53;101786.24;;;17.64;54.64
55460;BME280;41326;45.302;-122.946;2023-02-18T05:51:23;101783.48;;;17.62;54.61
55460;BME280;41326;45.302;-122.946;2023-02-18T05:53:53;101780.78;;;17.61;54.76
55460;BME280;41326;45.302;-122.946;2023-02-18T05:56:23;101773.85;;;17.63;54.71
55460;BME280;41326;45.302;-122.946;2023-02-18T05:58:54;101764.39;;;17.59;54.78
55460;BME280;41326;45.302;-122.946;2023-02-18T06:01:24;101759.51;;;17.54;54.79
55460;BME280;41326;45.302;-122.946;2023-02-18T06:03:54;101756.02;;;17.53;54.89
55460;BME280;41326;45.302;-122.946;2023-02-18T06:06:25;101752.62;;;17.51;54.97
55460;BME280;41326;45.302;-122.946;2023-02-18T06:08:55;101749.03;;;17.50;54.97
55460;BME280;41326;45.302;-122.946;2023-02-18T06:11:25;101751.66;;;17.50;54.97
55460;BME280;41326;45.302;-122.946;2023-02-18T06:13:55;101757.21;;;17.48;54.96
55460;BME280;41326;45.302;-122.946;2023-02-18T06:16:26;101766.12;;;17.44;55.14
55460;BME280;41326;45.302;-122.946;2023-02-18T06:18:56;101770.38;;;17.44;55.12
55460;BME280;41326;45.302;-122.946;2023-02-18T06:21:27;101769.83;;;17.43;54.97
55460;BME280;41326;45.302;-122.946;2023-02-18T06:23:57;101770.81;;;17.39;55.09
55460;BME280;41326;45.302;-122.946;2023-02-18T06:26:27;101775.79;;;17.42;54.99
55460;BME280;41326;45.302;-122.946;2023-02-18T06:28:58;101783.10;;;17.36;55.14
55460;BME280;41326;45.302;-122.946;2023-02-18T06:32:35;101787.83;;;17.32;55.30
55460;BME280;41326;45.302;-122.946;2023-02-18T06:35:06;101790.79;;;17.34;55.19
55460;BME280;41326;45.302;-122.946;2023-02-18T06:37:36;101793.15;;;17.29;55.28
55460;BME280;41326;45.302;-122.946;2023-02-18T06:40:06;101796.47;;;17.30;55.10
55460;BME280;41326;45.302;-122.946;2023-02-18T06:42:42;101795.84;;;17.31;55.05
55460;BME280;41326;45.302;-122.946;2023-02-18T06:45:12;101799.01;;;17.28;55.11
55460;BME280;41326;45.302;-122.946;2023-02-18T06:47:42;101796.23;;;17.30;55.01
55460;BME280;41326;45.302;-122.946;2023-02-18T06:50:12;101800.71;;;17.23;55.25
55460;BME280;41326;45.302;-122.946;2023-02-18T06:52:42;101801.15;;;17.19;55.34
55460;BME280;41326;45.302;-122.946;2023-02-18T06:55:13;101798.01;;;17.17;55.41
55460;BME280;41326;45.302;-122.946;2023-02-18T06:57:42;101788.59;;;17.21;55.24
55460;BME280;41326;45.302;-122.946;2023-02-18T07:00:14;101788.80;;;17.19;55.24
55460;BME280;41326;45.302;-122.946;2023-02-18T07:02:46;101789.21;;;17.19;55.21
55460;BME280;41326;45.302;-122.946;2023-02-18T07:05:17;101795.48;;;17.15;55.29
55460;BME280;41326;45.302;-122.946;2023-02-18T07:07:48;101795.89;;;17.15;55.29
55460;BME280;41326;45.302;-122.946;2023-02-18T07:10:17;101794.94;;;17.10;55.48
55460;BME280;41326;45.302;-122.946;2023-02-18T07:12:48;101793.28;;;17.08;55.49
55460;BME280;41326;45.302;-122.946;2023-02-18T07:15:18;101794.57;;;17.10;55.49
55460;BME280;41326;45.302;-122.946;2023-02-18T07:17:48;101794.93;;;17.09;55.43
55460;BME280;41326;45.302;-122.946;2023-02-18T07:20:19;101795.54;;;17.16;55.14
55460;BME280;41326;45.302;-122.946;2023-02-18T07:22:49;101790.60;;;17.18;55.04
55460;BME280;41326;45.302;-122.946;2023-02-18T07:25:19;101784.60;;;17.18;55.03
55460;BME280;41326;45.302;-122.946;2023-02-18T07:27:49;101783.44;;;17.21;54.88
55460;BME280;41326;45.302;-122.946;2023-02-18T07:30:20;101782.55;;;17.21;54.88
55460;BME280;41326;45.302;-122.946;2023-02-18T07:32:49;101782.22;;;17.25;54.74
55460;BME280;41326;45.302;-122.946;2023-02-18T07:35:21;101774.13;;;17.20;54.87
55460;BME280;41326;45.302;-122.946;2023-02-18T07:37:51;101762.07;;;17.21;54.69
55460;BME280;41326;45.302;-122.946;2023-02-18T07:40:22;101756.60;;;17.24;54.53
55460;BME280;41326;45.302;-122.946;2023-02-18T07:42:51;101759.70;;;17.24;54.47
55460;BME280;41326;45.302;-122.946;2023-02-18T07:45:21;101763.36;;;17.19;54.70
55460;BME280;41326;45.302;-122.946;2023-02-18T07:47:51;101767.42;;;17.19;54.67
55460;BME280;41326;45.302;-122.946;2023-02-18T07:50:22;101769.63;;;17.12;54.85
55460;BME280;41326;45.302;-122.946;2023-02-18T07:52:52;101770.48;;;17.12;54.83
55460;BME280;41326;45.302;-122.946;2023-02-18T07:55:22;101770.82;;;17.10;54.87
55460;BME280;41326;45.302;-122.946;2023-02-18T07:57:53;101779.13;;;17.13;54.72
55460;BME280;41326;45.302;-122.946;2023-02-18T08:00:23;101772.76;;;17.10;54.68
55460;BME280;41326;45.302;-122.946;2023-02-18T08:02:53;101765.85;;;17.09;54.76
55460;BME280;41326;45.302;-122.946;2023-02-18T08:05:24;101765.06;;;17.12;54.69
55460;BME280;41326;45.302;-122.946;2023-02-18T08:07:54;101764.14;;;17.09;54.75
55460;BME280;41326;45.302;-122.946;2023-02-18T08:10:25;101769.09;;;17.11;54.66
55460;BME280;41326;45.302;-122.946;2023-02-18T08:12:55;101774.93;;;17.09;54.67
55460;BME280;41326;45.302;-122.946;2023-02-18T08:15:25;101777.37;;;17.04;54.75
55460;BME280;41326;45.302;-122.946;2023-02-18T08:17:55;101777.93;;;17.01;54.80
55460;BME280;41326;45.302;-122.946;2023-02-18T08:20:26;101787.13;;;17.01;54.73
55460;BME280;41326;45.302;-122.946;2023-02-18T08:22:56;101791.49;;;16.99;54.85
55460;BME280;41326;45.302;-122.946;2023-02-18T08:25:26;101787.41;;;17.03;54.78
55460;BME280;41326;45.302;-122.946;2023-02-18T08:27:57;101786.22;;;17.02;54.72
55460;BME280;41326;45.302;-122.946;2023-02-18T08:30:27;101785.13;;;17.00;54.75
55460;BME280;41326;45.302;-122.946;2023-02-18T08:32:57;101785.09;;;16.94;54.93
55460;BME280;41326;45.302;-122.946;2023-02-18T08:35:28;101784.09;;;16.87;55.08
55460;BME280;41326;45.302;-122.946;2023-02-18T08:37:58;101784.77;;;16.94;54.81
55460;BME280;41326;45.302;-122.946;2023-02-18T08:40:36;101785.27;;;16.94;54.73
55460;BME280;41326;45.302;-122.946;2023-02-18T08:42:59;101786.05;;;16.94;54.84
55460;BME280;41326;45.302;-122.946;2023-02-18T08:45:29;101789.78;;;16.89;55.35
55460;BME280;41326;45.302;-122.946;2023-02-18T08:47:59;101791.38;;;16.89;55.53
55460;BME280;41326;45.302;-122.946;2023-02-18T08:50:29;101793.61;;;16.90;55.65
55460;BME280;41326;45.302;-122.946;2023-02-18T08:53:01;101787.09;;;16.86;55.77
55460;BME280;41326;45.302;-122.946;2023-02-18T08:55:30;101778.37;;;16.80;56.01
55460;BME280;41326;45.302;-122.946;2023-02-18T08:58:01;101762.16;;;16.85;56.14
55460;BME280;41326;45.302;-122.946;2023-02-18T09:00:31;101757.38;;;16.81;56.39
55460;BME280;41326;45.302;-122.946;2023-02-18T09:03:01;101754.60;;;16.83;56.42
55460;BME280;41326;45.302;-122.946;2023-02-18T09:05:32;101745.41;;;16.78;56.60
55460;BME280;41326;45.302;-122.946;2023-02-18T09:08:02;101743.69;;;16.78;56.69
55460;BME280;41326;45.302;-122.946;2023-02-18T09:10:33;101746.45;;;16.79;56.70
55460;BME280;41326;45.302;-122.946;2023-02-18T09:13:03;101751.83;;;16.74;57.01
55460;BME280;41326;45.302;-122.946;2023-02-18T09:15:33;101750.50;;;16.66;57.20
55460;BME280;41326;45.302;-122.946;2023-02-18T09:18:03;101746.18;;;16.68;57.13
55460;BME280;41326;45.302;-122.946;2023-02-18T09:20:33;101740.67;;;16.66;57.08
55460;BME280;41326;45.302;-122.946;2023-02-18T09:23:05;101737.83;;;16.68;56.94
55460;BME280;41326;45.302;-122.946;2023-02-18T09:25:34;101733.59;;;16.70;56.91
55460;BME280;41326;45.302;-122.946;2023-02-18T09:28:05;101731.04;;;16.65;57.24
55460;BME280;41326;45.302;-122.946;2023-02-18T09:30:35;101725.54;;;16.69;57.12
55460;BME280;41326;45.302;-122.946;2023-02-18T09:33:07;101717.97;;;16.69;57.09
55460;BME280;41326;45.302;-122.946;2023-02-18T09:35:38;101712.01;;;16.71;56.96
55460;BME280;41326;45.302;-122.946;2023-02-18T09:38:08;101707.83;;;16.67;57.01
55460;BME280;41326;45.302;-122.946;2023-02-18T09:40:43;101709.15;;;16.63;57.00
55460;BME280;41326;45.302;-122.946;2023-02-18T09:43:08;101714.45;;;16.61;57.09
55460;BME280;41326;45.302;-122.946;2023-02-18T09:45:38;101716.34;;;16.61;57.03
55460;BME280;41326;45.302;-122.946;2023-02-18T09:48:09;101716.53;;;16.63;56.96
55460;BME280;41326;45.302;-122.946;2023-02-18T09:50:39;101721.22;;;16.60;57.19
55460;BME280;41326;45.302;-122.946;2023-02-18T09:53:10;101716.49;;;16.57;57.50
55460;BME280;41326;45.302;-122.946;2023-02-18T09:55:43;101711.37;;;16.57;57.54
55460;BME280;41326;45.302;-122.946;2023-02-18T09:58:12;101712.69;;;16.55;57.73
55460;BME280;41326;45.302;-122.946;2023-02-18T10:00:42;101718.21;;;16.53;57.96
55460;BME280;41326;45.302;-122.946;2023-02-18T10:03:13;101721.61;;;16.54;57.85
55460;BME280;41326;45.302;-122.946;2023-02-18T10:05:44;101723.25;;;16.52;57.88
55460;BME280;41326;45.302;-122.946;2023-02-18T10:08:17;101731.84;;;16.46;57.98
55460;BME280;41326;45.302;-122.946;2023-02-18T10:10:44;101736.72;;;16.48;57.93
55460;BME280;41326;45.302;-122.946;2023-02-18T10:13:19;101730.04;;;16.44;58.03
55460;BME280;41326;45.302;-122.946;2023-02-18T10:15:43;101727.05;;;16.42;58.10
55460;BME280;41326;45.302;-122.946;2023-02-18T10:18:22;101726.68;;;16.44;57.91
55460;BME280;41326;45.302;-122.946;2023-02-18T10:20:42;101727.80;;;16.45;57.85
55460;BME280;41326;45.302;-122.946;2023-02-18T10:23:14;101722.14;;;16.45;57.87
55460;BME280;41326;45.302;-122.946;2023-02-18T10:25:48;101720.49;;;16.46;57.80
55460;BME280;41326;45.302;-122.946;2023-02-18T10:28:14;101724.11;;;16.39;58.02
55460;BME280;41326;45.302;-122.946;2023-02-18T10:30:48;101729.34;;;16.41;57.94
55460;BME280;41326;45.302;-122.946;2023-02-18T10:33:26;101729.82;;;16.35;58.12
55460;BME280;41326;45.302;-122.946;2023-02-18T10:35:52;101732.68;;;16.36;58.02
55460;BME280;41326;45.302;-122.946;2023-02-18T10:38:23;101736.87;;;16.41;57.83
55460;BME280;41326;45.302;-122.946;2023-02-18T10:40:54;101728.70;;;16.42;57.64
55460;BME280;41326;45.302;-122.946;2023-02-18T10:43:21;101715.35;;;16.43;57.56
55460;BME280;41326;45.302;-122.946;2023-02-18T10:45:53;101709.11;;;16.37;57.71
55460;BME280;41326;45.302;-122.946;2023-02-18T10:48:34;101709.68;;;16.34;57.88
55460;BME280;41326;45.302;-122.946;2023-02-18T10:50:48;101709.93;;;16.31;57.98
55460;BME280;41326;45.302;-122.946;2023-02-18T10:53:21;101706.30;;;16.35;57.81
55460;BME280;41326;45.302;-122.946;2023-02-18T10:55:49;101706.40;;;16.35;57.83
55460;BME280;41326;45.302;-122.946;2023-02-18T10:58:23;101709.69;;;16.35;58.05
55460;BME280;41326;45.302;-122.946;2023-02-18T11:00:49;101703.77;;;16.36;57.80
55460;BME280;41326;45.302;-122.946;2023-02-18T11:03:22;101703.95;;;16.38;57.85
55460;BME280;41326;45.302;-122.946;2023-02-18T11:05:50;101708.74;;;16.35;57.90
55460;BME280;41326;45.302;-122.946;2023-02-18T11:08:24;101708.63;;;16.33;57.95
55460;BME280;41326;45.302;-122.946;2023-02-18T11:10:51;101705.43;;;16.31;58.04
55460;BME280;41326;45.302;-122.946;2023-02-18T11:13:24;101708.99;;;16.28;58.16
55460;BME280;41326;45.302;-122.946;2023-02-18T11:15:57;101705.17;;;16.30;58.03
55460;BME280;41326;45.302;-122.946;2023-02-18T11:18:35;101698.98;;;16.29;57.96
55460;BME280;41326;45.302;-122.946;2023-02-18T11:20:57;101702.01;;;16.27;57.96
55460;BME280;41326;45.302;-122.946;2023-02-18T11:23:24;101704.45;;;16.23;58.05
55460;BME280;41326;45.302;-122.946;2023-02-18T11:25:57;101702.62;;;16.24;58.00
55460;BME280;41326;45.302;-122.946;2023-02-18T11:28:28;101702.09;;;16.23;58.03
55460;BME280;41326;45.302;-122.946;2023-02-18T11:30:54;101698.83;;;16.19;58.09
55460;BME280;41326;45.302;-122.946;2023-02-18T11:33:25;101690.90;;;16.18;58.24
55460;BME280;41326;45.302;-122.946;2023-02-18T11:35:55;101690.03;;;16.22;57.99
55460;BME280;41326;45.302;-122.946;2023-02-18T11:38:28;101694.33;;;16.17;58.09
55460;BME280;41326;45.302;-122.946;2023-02-18T11:41:00;101698.55;;;16.16;58.14
55460;BME280;41326;45.302;-122.946;2023-02-18T11:43:25;101693.48;;;16.18;57.97
55460;BME280;41326;45.302;-122.946;2023-02-18T11:48:28;101682.37;;;16.15;58.03
55460;BME280;41326;45.302;-122.946;2023-02-18T11:50:56;101676.86;;;16.12;58.04
55460;BME280;41326;45.302;-122.946;2023-02-18T11:53:31;101667.25;;;16.12;58.01
55460;BME280;41326;45.302;-122.946;2023-02-18T11:56:00;101660.24;;;16.10;58.03
55460;BME280;41326;45.302;-122.946;2023-02-18T11:58:28;101663.00;;;16.11;57.94
55460;BME280;41326;45.302;-122.946;2023-02-18T12:01:00;101676.08;;;16.09;57.91
55460;BME280;41326;45.302;-122.946;2023-02-18T12:03:35;101684.67;;;16.12;57.73
55460;BME280;41326;45.302;-122.946;2023-02-18T12:05:59;101685.46;;;16.12;57.73
55460;BME280;41326;45.302;-122.946;2023-02-18T12:08:29;101690.62;;;16.16;57.61
55460;BME280;41326;45.302;-122.946;2023-02-18T12:11:02;101699.34;;;16.17;57.59
55460;BME280;41326;45.302;-122.946;2023-02-18T12:13:31;101700.50;;;16.26;57.37
55460;BME280;41326;45.302;-122.946;2023-02-18T12:16:06;101699.65;;;16.23;57.34
55460;BME280;41326;45.302;-122.946;2023-02-18T12:21:12;101706.73;;;16.25;57.24
55460;BME280;41326;45.302;-122.946;2023-02-18T12:23:36;101688.06;;;16.30;57.08
55460;BME280;41326;45.302;-122.946;2023-02-18T12:26:02;101679.58;;;16.24;57.23
55460;BME280;41326;45.302;-122.946;2023-02-18T12:28:40;101681.85;;;16.24;57.17
55460;BME280;41326;45.302;-122.946;2023-02-18T12:31:08;101677.04;;;16.25;57.18
55460;BME280;41326;45.302;-122.946;2023-02-18T12:33:35;101669.37;;;16.22;57.24
55460;BME280;41326;45.302;-122.946;2023-02-18T12:36:09;101659.64;;;16.18;57.47
55460;BME280;41326;45.302;-122.946;2023-02-18T12:38:45;101644.74;;;16.19;57.43
55460;BME280;41326;45.302;-122.946;2023-02-18T12:41:09;101640.96;;;16.21;57.27
55460;BME280;41326;45.302;-122.946;2023-02-18T12:43:39;101640.98;;;16.14;57.43
55460;BME280;41326;45.302;-122.946;2023-02-18T12:46:15;101650.21;;;16.14;57.82
55460;BME280;41326;45.302;-122.946;2023-02-18T12:48:40;101648.48;;;16.14;57.78
55460;BME280;41326;45.302;-122.946;2023-02-18T12:51:17;101641.03;;;16.17;57.78